Weather at Airlake Airport

Public forecast

Using degrees Fahrenheit for public forecast. Weather courtesy of forecast.io.

Current aviation weather report (METAR) for Airlake Airport

Retrieved 2021/09/25 23:15 UTC (7 minutes ago):

KLVN 252315Z AUTO 00000KT 10SM CLR 19/M02 A2988 RMK AO2

Aviation forecast (TAF) for Airlake Airport

Forecast is more than 12 hours old.

Retrieved 2018/02/05 00:21 UTC (4 years ago):

TAF KLVN 052320Z 0600/0624 27006KT P6SM FEW020 FM060200 31009KT P6SM FEW250 FM061700 22004KT P6SM FEW200 FM062200 22004KT P6SM OVC100 AMD NOT SKED